sensor_id;sensor_type;location;lat;lon;timestamp;pressure;altitude;pressure_sealevel;temperature;humidity
5651;BME280;40241;52.684;9.758;2022-09-12T00:01:20;101584.34;;;15.30;59.50
5651;BME280;40241;52.684;9.758;2022-09-12T00:03:46;101586.59;;;15.26;59.33
5651;BME280;40241;52.684;9.758;2022-09-12T00:06:23;101585.84;;;15.20;59.63
5651;BME280;40241;52.684;9.758;2022-09-12T00:08:50;101581.03;;;15.15;59.71
5651;BME280;40241;52.684;9.758;2022-09-12T00:11:15;101582.03;;;15.12;59.76
5651;BME280;40241;52.684;9.758;2022-09-12T00:13:41;101591.34;;;15.09;59.63
5651;BME280;40241;52.684;9.758;2022-09-12T00:16:14;101582.28;;;15.08;59.50
5651;BME280;40241;52.684;9.758;2022-09-12T00:18:40;101586.81;;;15.06;59.41
5651;BME280;40241;52.684;9.758;2022-09-12T00:21:05;101583.00;;;15.03;59.47
5651;BME280;40241;52.684;9.758;2022-09-12T00:23:31;101583.53;;;14.96;59.51
5651;BME280;40241;52.684;9.758;2022-09-12T00:25:57;101579.47;;;14.91;59.65
5651;BME280;40241;52.684;9.758;2022-09-12T00:28:22;101569.91;;;14.87;59.82
5651;BME280;40241;52.684;9.758;2022-09-12T00:30:48;101582.72;;;14.84;59.72
5651;BME280;40241;52.684;9.758;2022-09-12T00:33:15;101582.22;;;14.80;59.92
5651;BME280;40241;52.684;9.758;2022-09-12T00:35:42;101576.69;;;14.80;59.60
5651;BME280;40241;52.684;9.758;2022-09-12T00:38:08;101581.97;;;14.78;59.47
5651;BME280;40241;52.684;9.758;2022-09-12T00:40:33;101574.13;;;14.71;59.35
5651;BME280;40241;52.684;9.758;2022-09-12T00:42:59;101576.84;;;14.66;59.28
5651;BME280;40241;52.684;9.758;2022-09-12T00:45:28;101571.06;;;14.58;59.40
5651;BME280;40241;52.684;9.758;2022-09-12T00:47:55;101568.50;;;14.49;59.52
5651;BME280;40241;52.684;9.758;2022-09-12T00:50:23;101566.19;;;14.42;59.72
5651;BME280;40241;52.684;9.758;2022-09-12T00:52:59;101559.63;;;14.40;59.85
5651;BME280;40241;52.684;9.758;2022-09-12T00:55:31;101559.09;;;14.36;59.87
5651;BME280;40241;52.684;9.758;2022-09-12T00:58:05;101561.41;;;14.37;59.86
5651;BME280;40241;52.684;9.758;2022-09-12T01:00:33;101563.88;;;14.35;59.82
5651;BME280;40241;52.684;9.758;2022-09-12T01:03:01;101559.63;;;14.34;60.00
5651;BME280;40241;52.684;9.758;2022-09-12T01:05:30;101551.06;;;14.32;59.65
5651;BME280;40241;52.684;9.758;2022-09-12T01:08:00;101550.25;;;14.26;59.59
5651;BME280;40241;52.684;9.758;2022-09-12T01:10:26;101550.47;;;14.22;59.60
5651;BME280;40241;52.684;9.758;2022-09-12T01:12:51;101540.66;;;14.21;59.50
5651;BME280;40241;52.684;9.758;2022-09-12T01:15:16;101541.91;;;14.20;59.67
5651;BME280;40241;52.684;9.758;2022-09-12T01:18:09;101539.63;;;14.19;59.66
5651;BME280;40241;52.684;9.758;2022-09-12T01:24:28;101539.06;;;14.04;59.97
5651;BME280;40241;52.684;9.758;2022-09-12T01:26:52;101540.78;;;14.01;60.11
5651;BME280;40241;52.684;9.758;2022-09-12T01:29:44;101536.75;;;14.02;59.97
5651;BME280;40241;52.684;9.758;2022-09-12T01:32:45;101537.78;;;13.99;60.14
5651;BME280;40241;52.684;9.758;2022-09-12T01:38:35;101537.97;;;13.90;59.82
5651;BME280;40241;52.684;9.758;2022-09-12T01:43:34;101541.19;;;13.83;60.00
5651;BME280;40241;52.684;9.758;2022-09-12T01:48:38;101543.19;;;13.83;60.03
5651;BME280;40241;52.684;9.758;2022-09-12T01:54:03;101534.59;;;13.75;60.29
5651;BME280;40241;52.684;9.758;2022-09-12T01:56:33;101535.09;;;13.74;60.11
5651;BME280;40241;52.684;9.758;2022-09-12T01:59:20;101528.03;;;13.73;60.21
5651;BME280;40241;52.684;9.758;2022-09-12T02:02:00;101534.81;;;13.72;59.92
5651;BME280;40241;52.684;9.758;2022-09-12T02:04:34;101523.22;;;13.68;59.88
5651;BME280;40241;52.684;9.758;2022-09-12T02:07:07;101516.66;;;13.65;59.82
5651;BME280;40241;52.684;9.758;2022-09-12T02:09:42;101520.44;;;13.62;59.75
5651;BME280;40241;52.684;9.758;2022-09-12T02:12:13;101515.09;;;13.59;59.88
5651;BME280;40241;52.684;9.758;2022-09-12T02:14:44;101519.91;;;13.58;60.14
5651;BME280;40241;52.684;9.758;2022-09-12T02:17:13;101518.38;;;13.57;60.22
5651;BME280;40241;52.684;9.758;2022-09-12T02:19:44;101522.16;;;13.60;60.39
5651;BME280;40241;52.684;9.758;2022-09-12T02:22:13;101511.09;;;13.60;60.11
5651;BME280;40241;52.684;9.758;2022-09-12T02:24:42;101505.31;;;13.58;59.92
5651;BME280;40241;52.684;9.758;2022-09-12T02:29:53;101508.00;;;13.46;59.86
5651;BME280;40241;52.684;9.758;2022-09-12T02:39:56;101513.53;;;13.46;60.04
5651;BME280;40241;52.684;9.758;2022-09-12T02:42:23;101512.75;;;13.46;59.98
5651;BME280;40241;52.684;9.758;2022-09-12T02:44:49;101508.69;;;13.41;59.92
5651;BME280;40241;52.684;9.758;2022-09-12T02:47:19;101509.19;;;13.40;60.00
5651;BME280;40241;52.684;9.758;2022-09-12T02:49:47;101498.09;;;13.34;59.88
5651;BME280;40241;52.684;9.758;2022-09-12T02:52:12;101500.31;;;13.30;60.02
5651;BME280;40241;52.684;9.758;2022-09-12T02:54:38;101498.28;;;13.25;59.97
5651;BME280;40241;52.684;9.758;2022-09-12T02:57:14;101499.25;;;13.22;60.19
5651;BME280;40241;52.684;9.758;2022-09-12T02:59:40;101498.72;;;13.18;60.05
5651;BME280;40241;52.684;9.758;2022-09-12T03:02:23;101499.47;;;13.19;60.09
5651;BME280;40241;52.684;9.758;2022-09-12T03:14:30;101497.00;;;12.95;60.08
5651;BME280;40241;52.684;9.758;2022-09-12T03:22:52;101497.56;;;12.79;60.54
5651;BME280;40241;52.684;9.758;2022-09-12T03:25:28;101491.25;;;12.73;60.16
5651;BME280;40241;52.684;9.758;2022-09-12T03:28:03;101494.19;;;12.69;60.48
5651;BME280;40241;52.684;9.758;2022-09-12T03:30:40;101493.44;;;12.69;60.53
5651;BME280;40241;52.684;9.758;2022-09-12T03:33:09;101495.72;;;12.70;60.45
5651;BME280;40241;52.684;9.758;2022-09-12T03:35:35;101494.00;;;12.73;60.57
5651;BME280;40241;52.684;9.758;2022-09-12T03:38:00;101502.06;;;12.76;60.43
5651;BME280;40241;52.684;9.758;2022-09-12T03:40:26;101501.28;;;12.76;60.28
5651;BME280;40241;52.684;9.758;2022-09-12T03:42:57;101491.44;;;12.69;60.57
5651;BME280;40241;52.684;9.758;2022-09-12T03:45:22;101501.72;;;12.69;60.42
5651;BME280;40241;52.684;9.758;2022-09-12T03:47:48;101503.47;;;12.66;60.45
5651;BME280;40241;52.684;9.758;2022-09-12T03:50:13;101496.41;;;12.65;60.73
5651;BME280;40241;52.684;9.758;2022-09-12T03:52:38;101492.44;;;12.66;60.42
5651;BME280;40241;52.684;9.758;2022-09-12T03:55:04;101496.41;;;12.65;60.36
5651;BME280;40241;52.684;9.758;2022-09-12T03:57:30;101496.91;;;12.64;60.47
5651;BME280;40241;52.684;9.758;2022-09-12T03:59:55;101490.63;;;12.63;60.34
5651;BME280;40241;52.684;9.758;2022-09-12T04:02:20;101498.38;;;12.59;60.19
5651;BME280;40241;52.684;9.758;2022-09-12T04:04:46;101494.56;;;12.57;60.52
5651;BME280;40241;52.684;9.758;2022-09-12T04:07:13;101486.78;;;12.55;60.31
5651;BME280;40241;52.684;9.758;2022-09-12T04:09:38;101489.19;;;12.48;60.29
5651;BME280;40241;52.684;9.758;2022-09-12T04:12:04;101492.63;;;12.43;60.26
5651;BME280;40241;52.684;9.758;2022-09-12T04:14:29;101499.63;;;12.38;60.46
5651;BME280;40241;52.684;9.758;2022-09-12T04:16:54;101510.38;;;12.36;60.59
5651;BME280;40241;52.684;9.758;2022-09-12T04:19:20;101499.84;;;12.35;60.59
5651;BME280;40241;52.684;9.758;2022-09-12T04:21:45;101498.88;;;12.38;60.78
5651;BME280;40241;52.684;9.758;2022-09-12T04:24:10;101487.34;;;12.39;60.42
5651;BME280;40241;52.684;9.758;2022-09-12T04:26:36;101498.09;;;12.37;60.63
5651;BME280;40241;52.684;9.758;2022-09-12T04:29:01;101494.31;;;12.35;60.48
5651;BME280;40241;52.684;9.758;2022-09-12T04:31:27;101493.53;;;12.34;60.51
5651;BME280;40241;52.684;9.758;2022-09-12T04:33:57;101494.31;;;12.35;60.52
5651;BME280;40241;52.684;9.758;2022-09-12T04:36:23;101486.31;;;12.37;60.46
5651;BME280;40241;52.684;9.758;2022-09-12T04:38:50;101495.06;;;12.35;60.56
5651;BME280;40241;52.684;9.758;2022-09-12T04:41:24;101496.78;;;12.33;60.59
5651;BME280;40241;52.684;9.758;2022-09-12T04:43:52;101497.56;;;12.33;60.38
5651;BME280;40241;52.684;9.758;2022-09-12T04:46:18;101501.28;;;12.30;60.28
5651;BME280;40241;52.684;9.758;2022-09-12T04:48:45;101495.50;;;12.28;60.27
5651;BME280;40241;52.684;9.758;2022-09-12T04:51:34;101492.66;;;12.23;60.83
5651;BME280;40241;52.684;9.758;2022-09-12T04:54:03;101511.72;;;12.21;60.74
5651;BME280;40241;52.684;9.758;2022-09-12T04:56:29;101495.44;;;12.23;60.79
5651;BME280;40241;52.684;9.758;2022-09-12T04:58:59;101506.53;;;12.28;60.96
5651;BME280;40241;52.684;9.758;2022-09-12T05:01:25;101501.78;;;12.29;60.62
5651;BME280;40241;52.684;9.758;2022-09-12T05:03:52;101494.44;;;12.26;60.61
5651;BME280;40241;52.684;9.758;2022-09-12T05:06:23;101499.22;;;12.25;60.92
5651;BME280;40241;52.684;9.758;2022-09-12T05:08:49;101500.47;;;12.24;60.99
5651;BME280;40241;52.684;9.758;2022-09-12T05:11:17;101501.50;;;12.27;60.96
5651;BME280;40241;52.684;9.758;2022-09-12T05:13:43;101501.78;;;12.29;61.17
5651;BME280;40241;52.684;9.758;2022-09-12T05:16:11;101501.56;;;12.32;61.11
5651;BME280;40241;52.684;9.758;2022-09-12T05:18:37;101512.41;;;12.36;61.12
5651;BME280;40241;52.684;9.758;2022-09-12T05:21:05;101514.16;;;12.39;61.01
5651;BME280;40241;52.684;9.758;2022-09-12T05:23:31;101516.94;;;12.39;61.03
5651;BME280;40241;52.684;9.758;2022-09-12T05:25:59;101512.66;;;12.38;61.04
5651;BME280;40241;52.684;9.758;2022-09-12T05:28:29;101519.69;;;12.39;61.05
5651;BME280;40241;52.684;9.758;2022-09-12T05:31:07;101515.69;;;12.40;61.23
5651;BME280;40241;52.684;9.758;2022-09-12T05:33:35;101514.44;;;12.41;61.06
5651;BME280;40241;52.684;9.758;2022-09-12T05:36:02;101513.50;;;12.44;60.82
5651;BME280;40241;52.684;9.758;2022-09-12T05:38:28;101517.78;;;12.45;61.06
5651;BME280;40241;52.684;9.758;2022-09-12T05:41:11;101513.00;;;12.45;61.51
5651;BME280;40241;52.684;9.758;2022-09-12T05:43:38;101514.25;;;12.44;61.20
5651;BME280;40241;52.684;9.758;2022-09-12T05:46:06;101511.00;;;12.46;60.98
5651;BME280;40241;52.684;9.758;2022-09-12T05:48:36;101520.06;;;12.46;61.12
5651;BME280;40241;52.684;9.758;2022-09-12T05:51:07;101508.50;;;12.48;61.26
5651;BME280;40241;52.684;9.758;2022-09-12T05:53:35;101521.81;;;12.49;61.17
5651;BME280;40241;52.684;9.758;2022-09-12T05:56:13;101516.88;;;12.53;61.37
5651;BME280;40241;52.684;9.758;2022-09-12T05:58:41;101517.84;;;12.50;61.12
5651;BME280;40241;52.684;9.758;2022-09-12T06:01:13;101510.88;;;12.55;61.34
5651;BME280;40241;52.684;9.758;2022-09-12T06:03:44;101514.66;;;12.57;61.12
5651;BME280;40241;52.684;9.758;2022-09-12T06:06:10;101516.66;;;12.57;61.30
5651;BME280;40241;52.684;9.758;2022-09-12T06:08:41;101525.22;;;12.59;61.24
5651;BME280;40241;52.684;9.758;2022-09-12T06:11:07;101526.78;;;12.65;61.09
5651;BME280;40241;52.684;9.758;2022-09-12T06:13:35;101527.31;;;12.69;61.29
5651;BME280;40241;52.684;9.758;2022-09-12T06:16:16;101521.88;;;12.75;61.37
5651;BME280;40241;52.684;9.758;2022-09-12T06:18:47;101525.69;;;12.77;61.23
5651;BME280;40241;52.684;9.758;2022-09-12T06:21:13;101527.72;;;12.82;61.25
5651;BME280;40241;52.684;9.758;2022-09-12T06:23:39;101520.19;;;12.83;61.07
5651;BME280;40241;52.684;9.758;2022-09-12T06:26:07;101524.75;;;12.86;61.38
5651;BME280;40241;52.684;9.758;2022-09-12T06:28:38;101518.06;;;12.93;61.66
5651;BME280;40241;52.684;9.758;2022-09-12T06:31:09;101515.31;;;12.98;61.45
5651;BME280;40241;52.684;9.758;2022-09-12T06:33:38;101520.16;;;13.03;61.29
5651;BME280;40241;52.684;9.758;2022-09-12T06:36:05;101523.25;;;13.11;61.54
5651;BME280;40241;52.684;9.758;2022-09-12T06:38:31;101516.81;;;13.19;61.49
5651;BME280;40241;52.684;9.758;2022-09-12T06:40:57;101507.03;;;13.24;61.51
5651;BME280;40241;52.684;9.758;2022-09-12T06:43:23;101516.16;;;13.30;61.44
5651;BME280;40241;52.684;9.758;2022-09-12T06:45:49;101512.41;;;13.33;61.59
5651;BME280;40241;52.684;9.758;2022-09-12T06:48:15;101510.94;;;13.37;61.58
5651;BME280;40241;52.684;9.758;2022-09-12T06:50:41;101506.19;;;13.43;61.69
5651;BME280;40241;52.684;9.758;2022-09-12T06:53:06;101501.50;;;13.49;61.87
5651;BME280;40241;52.684;9.758;2022-09-12T06:55:31;101498.50;;;13.59;61.98
5651;BME280;40241;52.684;9.758;2022-09-12T06:57:58;101503.38;;;13.69;61.94
5651;BME280;40241;52.684;9.758;2022-09-12T07:00:23;101502.91;;;13.76;61.95
5651;BME280;40241;52.684;9.758;2022-09-12T07:02:53;101509.50;;;13.84;62.03
5651;BME280;40241;52.684;9.758;2022-09-12T07:05:18;101502.00;;;13.90;61.99
5651;BME280;40241;52.684;9.758;2022-09-12T07:07:43;101500.28;;;13.98;62.03
5651;BME280;40241;52.684;9.758;2022-09-12T07:10:09;101504.09;;;14.06;62.18
5651;BME280;40241;52.684;9.758;2022-09-12T07:12:36;101509.69;;;14.17;62.05
5651;BME280;40241;52.684;9.758;2022-09-12T07:15:01;101503.94;;;14.26;62.21
5651;BME280;40241;52.684;9.758;2022-09-12T07:17:26;101517.59;;;14.36;62.17
5651;BME280;40241;52.684;9.758;2022-09-12T07:19:51;101506.81;;;14.43;62.29
5651;BME280;40241;52.684;9.758;2022-09-12T07:22:17;101513.38;;;14.51;62.24
5651;BME280;40241;52.684;9.758;2022-09-12T07:24:42;101502.56;;;14.59;62.45
5651;BME280;40241;52.684;9.758;2022-09-12T07:27:09;101515.91;;;14.66;62.42
5651;BME280;40241;52.684;9.758;2022-09-12T07:29:35;101510.66;;;14.73;62.34
5651;BME280;40241;52.684;9.758;2022-09-12T07:32:00;101509.41;;;14.80;62.52
5651;BME280;40241;52.684;9.758;2022-09-12T07:34:26;101506.41;;;14.89;62.67
5651;BME280;40241;52.684;9.758;2022-09-12T07:36:51;101508.19;;;14.97;62.58
5651;BME280;40241;52.684;9.758;2022-09-12T07:39:17;101506.44;;;15.06;62.76
5651;BME280;40241;52.684;9.758;2022-09-12T07:41:42;101513.25;;;15.16;62.61
5651;BME280;40241;52.684;9.758;2022-09-12T07:44:07;101514.75;;;15.28;62.76
5651;BME280;40241;52.684;9.758;2022-09-12T07:46:32;101511.75;;;15.37;62.91
5651;BME280;40241;52.684;9.758;2022-09-12T07:49:00;101506.22;;;15.48;63.17
5651;BME280;40241;52.684;9.758;2022-09-12T07:51:27;101506.97;;;15.59;63.09
5651;BME280;40241;52.684;9.758;2022-09-12T07:53:53;101507.69;;;15.71;62.99
5651;BME280;40241;52.684;9.758;2022-09-12T07:56:19;101508.44;;;15.83;63.05
5651;BME280;40241;52.684;9.758;2022-09-12T07:58:45;101511.19;;;15.94;63.21
5651;BME280;40241;52.684;9.758;2022-09-12T08:01:12;101509.88;;;16.06;63.20
5651;BME280;40241;52.684;9.758;2022-09-12T08:03:39;101509.59;;;16.20;63.26
5651;BME280;40241;52.684;9.758;2022-09-12T08:06:07;101507.03;;;16.33;63.23
5651;BME280;40241;52.684;9.758;2022-09-12T08:08:33;101512.53;;;16.44;63.33
5651;BME280;40241;52.684;9.758;2022-09-12T08:10:59;101509.22;;;16.57;63.28
5651;BME280;40241;52.684;9.758;2022-09-12T08:13:26;101516.97;;;16.70;63.25
5651;BME280;40241;52.684;9.758;2022-09-12T08:15:59;101509.31;;;16.81;63.50
5651;BME280;40241;52.684;9.758;2022-09-12T08:18:26;101509.25;;;16.92;63.57
5651;BME280;40241;52.684;9.758;2022-09-12T08:20:59;101510.41;;;17.08;63.60
5651;BME280;40241;52.684;9.758;2022-09-12T08:23:26;101506.78;;;17.18;63.45
5651;BME280;40241;52.684;9.758;2022-09-12T08:25:56;101516.22;;;17.40;63.58
5651;BME280;40241;52.684;9.758;2022-09-12T08:28:23;101507.00;;;17.56;63.42
5651;BME280;40241;52.684;9.758;2022-09-12T08:30:49;101506.31;;;17.74;63.47
5651;BME280;40241;52.684;9.758;2022-09-12T08:33:15;101506.38;;;17.92;63.26
5651;BME280;40241;52.684;9.758;2022-09-12T08:35:40;101507.69;;;18.10;63.28
5651;BME280;40241;52.684;9.758;2022-09-12T08:38:05;101503.44;;;18.28;63.53
5651;BME280;40241;52.684;9.758;2022-09-12T08:40:32;101505.97;;;18.50;63.23
5651;BME280;40241;52.684;9.758;2022-09-12T08:46:07;101512.84;;;18.99;62.88
5651;BME280;40241;52.684;9.758;2022-09-12T08:48:36;101501.66;;;19.18;62.25
5651;BME280;40241;52.684;9.758;2022-09-12T08:51:02;101498.06;;;19.36;62.15
5651;BME280;40241;52.684;9.758;2022-09-12T08:53:30;101498.25;;;19.57;62.13
5651;BME280;40241;52.684;9.758;2022-09-12T08:56:01;101504.47;;;19.76;62.14
5651;BME280;40241;52.684;9.758;2022-09-12T08:58:28;101502.47;;;19.89;62.04
5651;BME280;40241;52.684;9.758;2022-09-12T09:03:59;101498.16;;;20.28;61.65
5651;BME280;40241;52.684;9.758;2022-09-12T09:11:52;101495.56;;;20.76;61.34
5651;BME280;40241;52.684;9.758;2022-09-12T09:17:30;101476.59;;;21.16;61.07
5651;BME280;40241;52.684;9.758;2022-09-12T09:20:44;101474.88;;;21.34;60.88
5651;BME280;40241;52.684;9.758;2022-09-12T09:23:28;101475.19;;;21.51;60.53
5651;BME280;40241;52.684;9.758;2022-09-12T09:25:59;101468.72;;;21.63;60.37
5651;BME280;40241;52.684;9.758;2022-09-12T09:28:31;101466.56;;;21.77;60.14
5651;BME280;40241;52.684;9.758;2022-09-12T09:31:00;101462.53;;;21.86;60.10
5651;BME280;40241;52.684;9.758;2022-09-12T09:33:32;101459.97;;;21.95;59.67
5651;BME280;40241;52.684;9.758;2022-09-12T09:38:59;101456.69;;;22.12;59.21
5651;BME280;40241;52.684;9.758;2022-09-12T09:44:20;101447.59;;;22.26;59.36
5651;BME280;40241;52.684;9.758;2022-09-12T09:46:48;101451.91;;;22.35;59.14
5651;BME280;40241;52.684;9.758;2022-09-12T09:49:16;101456.81;;;22.42;59.00
5651;BME280;40241;52.684;9.758;2022-09-12T09:51:42;101449.72;;;22.49;58.95
5651;BME280;40241;52.684;9.758;2022-09-12T09:54:20;101445.63;;;22.57;58.30
5651;BME280;40241;52.684;9.758;2022-09-12T09:56:47;101445.69;;;22.65;58.84
5651;BME280;40241;52.684;9.758;2022-09-12T09:59:27;101444.03;;;22.69;57.59
5651;BME280;40241;52.684;9.758;2022-09-12T10:01:54;101443.63;;;22.73;58.32
5651;BME280;40241;52.684;9.758;2022-09-12T10:04:27;101438.97;;;22.75;57.81
5651;BME280;40241;52.684;9.758;2022-09-12T10:06:56;101438.78;;;22.81;57.89
5651;BME280;40241;52.684;9.758;2022-09-12T10:09:27;101440.66;;;22.86;57.87
5651;BME280;40241;52.684;9.758;2022-09-12T10:11:54;101441.41;;;22.94;57.68
5651;BME280;40241;52.684;9.758;2022-09-12T10:14:30;101434.88;;;22.99;57.05
5651;BME280;40241;52.684;9.758;2022-09-12T10:16:56;101439.75;;;23.06;57.59
5651;BME280;40241;52.684;9.758;2022-09-12T10:19:32;101439.38;;;23.17;56.78
5651;BME280;40241;52.684;9.758;2022-09-12T10:21:58;101438.59;;;23.24;57.24
5651;BME280;40241;52.684;9.758;2022-09-12T10:24:27;101428.88;;;23.33;56.89
5651;BME280;40241;52.684;9.758;2022-09-12T10:26:57;101428.72;;;23.38;57.04
5651;BME280;40241;52.684;9.758;2022-09-12T10:29:32;101431.88;;;23.42;56.68
5651;BME280;40241;52.684;9.758;2022-09-12T10:32:01;101430.75;;;23.45;56.55
5651;BME280;40241;52.684;9.758;2022-09-12T10:34:34;101428.69;;;23.53;56.18
5651;BME280;40241;52.684;9.758;2022-09-12T10:37:06;101427.94;;;23.60;55.93
5651;BME280;40241;52.684;9.758;2022-09-12T10:39:34;101421.72;;;23.69;55.88
5651;BME280;40241;52.684;9.758;2022-09-12T10:42:02;101416.81;;;23.77;55.78
5651;BME280;40241;52.684;9.758;2022-09-12T10:44:30;101413.25;;;23.84;55.38
5651;BME280;40241;52.684;9.758;2022-09-12T10:46:57;101413.78;;;23.91;55.44
5651;BME280;40241;52.684;9.758;2022-09-12T10:49:28;101416.94;;;23.95;55.17
5651;BME280;40241;52.684;9.758;2022-09-12T10:51:55;101415.25;;;23.99;54.95
5651;BME280;40241;52.684;9.758;2022-09-12T10:54:23;101405.69;;;24.02;54.67
5651;BME280;40241;52.684;9.758;2022-09-12T11:39:55;101375.88;;;24.96;51.78
5651;BME280;40241;52.684;9.758;2022-09-12T11:42:29;101374.69;;;24.99;50.75
5651;BME280;40241;52.684;9.758;2022-09-12T11:45:24;101372.41;;;25.05;50.41
5651;BME280;40241;52.684;9.758;2022-09-12T11:47:52;101369.16;;;25.08;50.44
5651;BME280;40241;52.684;9.758;2022-09-12T11:50:30;101373.50;;;25.09;49.16
5651;BME280;40241;52.684;9.758;2022-09-12T11:53:01;101370.25;;;25.13;50.05
5651;BME280;40241;52.684;9.758;2022-09-12T11:55:35;101374.16;;;25.17;49.71
5651;BME280;40241;52.684;9.758;2022-09-12T11:58:01;101366.47;;;25.18;49.84
5651;BME280;40241;52.684;9.758;2022-09-12T12:00:38;101367.72;;;25.24;48.88
5651;BME280;40241;52.684;9.758;2022-09-12T12:05:54;101364.31;;;25.26;48.71
5651;BME280;40241;52.684;9.758;2022-09-12T12:08:23;101362.75;;;25.33;49.97
5651;BME280;40241;52.684;9.758;2022-09-12T12:10:52;101361.16;;;25.39;49.25
5651;BME280;40241;52.684;9.758;2022-09-12T12:16:14;101353.16;;;25.53;47.97
5651;BME280;40241;52.684;9.758;2022-09-12T12:18:41;101361.66;;;25.62;48.80
5651;BME280;40241;52.684;9.758;2022-09-12T12:29:03;101363.72;;;25.96;47.91
5651;BME280;40241;52.684;9.758;2022-09-12T12:31:29;101365.09;;;26.04;47.63
5651;BME280;40241;52.684;9.758;2022-09-12T12:34:01;101351.41;;;26.18;47.25
5651;BME280;40241;52.684;9.758;2022-09-12T12:36:31;101354.59;;;26.32;47.62
5651;BME280;40241;52.684;9.758;2022-09-12T12:38:58;101351.50;;;26.37;46.91
5651;BME280;40241;52.684;9.758;2022-09-12T12:41:44;101348.34;;;26.33;47.09
5651;BME280;40241;52.684;9.758;2022-09-12T12:47:20;101345.75;;;26.18;46.68
5651;BME280;40241;52.684;9.758;2022-09-12T12:49:58;101338.91;;;26.12;46.81
5651;BME280;40241;52.684;9.758;2022-09-12T12:52:30;101350.25;;;26.04;47.01
5651;BME280;40241;52.684;9.758;2022-09-12T12:54:58;101336.25;;;25.96;47.43
5651;BME280;40241;52.684;9.758;2022-09-12T12:57:28;101335.34;;;25.94;47.49
5651;BME280;40241;52.684;9.758;2022-09-12T13:00:01;101335.81;;;26.00;47.00
5651;BME280;40241;52.684;9.758;2022-09-12T13:05:02;101332.75;;;26.06;47.35
5651;BME280;40241;52.684;9.758;2022-09-12T13:07:34;101329.09;;;26.13;46.87
5651;BME280;40241;52.684;9.758;2022-09-12T13:10:01;101329.75;;;26.21;47.24
5651;BME280;40241;52.684;9.758;2022-09-12T13:12:30;101318.16;;;26.26;46.63
5651;BME280;40241;52.684;9.758;2022-09-12T13:14:59;101315.50;;;26.28;46.70
5651;BME280;40241;52.684;9.758;2022-09-12T13:17:32;101319.38;;;26.33;46.45
5651;BME280;40241;52.684;9.758;2022-09-12T13:22:43;101298.84;;;26.59;45.77
5651;BME280;40241;52.684;9.758;2022-09-12T13:25:26;101303.31;;;26.71;44.50
5651;BME280;40241;52.684;9.758;2022-09-12T13:27:58;101315.44;;;26.82;44.65
5651;BME280;40241;52.684;9.758;2022-09-12T13:30:27;101299.22;;;26.82;45.45
5651;BME280;40241;52.684;9.758;2022-09-12T13:32:56;101295.66;;;26.82;45.36
5651;BME280;40241;52.684;9.758;2022-09-12T13:35:38;101287.19;;;26.82;44.85
5651;BME280;40241;52.684;9.758;2022-09-12T13:38:21;101271.00;;;26.82;45.40
5651;BME280;40241;52.684;9.758;2022-09-12T13:41:24;101274.25;;;26.79;44.23
5651;BME280;40241;52.684;9.758;2022-09-12T13:43:55;101270.38;;;26.74;45.47
5651;BME280;40241;52.684;9.758;2022-09-12T13:46:26;101267.66;;;26.66;44.94
5651;BME280;40241;52.684;9.758;2022-09-12T13:48:54;101269.69;;;26.56;45.96
5651;BME280;40241;52.684;9.758;2022-09-12T13:51:24;101264.06;;;26.47;45.34
5651;BME280;40241;52.684;9.758;2022-09-12T13:53:52;101261.19;;;26.37;45.75
5651;BME280;40241;52.684;9.758;2022-09-12T13:56:18;101260.28;;;26.35;46.01
5651;BME280;40241;52.684;9.758;2022-09-12T13:58:58;101258.66;;;26.41;44.64
5651;BME280;40241;52.684;9.758;2022-09-12T14:01:42;101242.53;;;26.61;44.18
5651;BME280;40241;52.684;9.758;2022-09-12T14:04:15;101233.53;;;26.82;44.32
5651;BME280;40241;52.684;9.758;2022-09-12T14:07:06;101238.75;;;26.95;44.89
5651;BME280;40241;52.684;9.758;2022-09-12T14:09:37;101236.66;;;26.95;44.49
5651;BME280;40241;52.684;9.758;2022-09-12T14:12:09;101234.72;;;26.98;44.87
5651;BME280;40241;52.684;9.758;2022-09-12T14:14:42;101228.78;;;27.03;44.66
5651;BME280;40241;52.684;9.758;2022-09-12T14:19:42;101226.25;;;27.17;44.68
5651;BME280;40241;52.684;9.758;2022-09-12T14:22:11;101227.13;;;27.29;43.81
5651;BME280;40241;52.684;9.758;2022-09-12T14:24:42;101230.72;;;27.39;44.16
5651;BME280;40241;52.684;9.758;2022-09-12T14:27:12;101230.25;;;27.42;43.96
5651;BME280;40241;52.684;9.758;2022-09-12T14:29:40;101218.66;;;27.38;43.81
5651;BME280;40241;52.684;9.758;2022-09-12T14:32:19;101217.31;;;27.39;42.83
5651;BME280;40241;52.684;9.758;2022-09-12T14:35:18;101218.94;;;27.42;42.92
5651;BME280;40241;52.684;9.758;2022-09-12T14:37:47;101211.38;;;27.45;43.57
5651;BME280;40241;52.684;9.758;2022-09-12T14:40:22;101208.81;;;27.39;43.26
5651;BME280;40241;52.684;9.758;2022-09-12T14:42:49;101208.09;;;27.29;44.04
5651;BME280;40241;52.684;9.758;2022-09-12T14:47:52;101207.06;;;27.25;43.93
5651;BME280;40241;52.684;9.758;2022-09-12T14:50:24;101205.72;;;27.26;43.62
5651;BME280;40241;52.684;9.758;2022-09-12T14:56:05;101200.50;;;27.22;43.39
5651;BME280;40241;52.684;9.758;2022-09-12T14:58:31;101203.94;;;27.21;43.91
5651;BME280;40241;52.684;9.758;2022-09-12T15:00:58;101198.72;;;27.17;43.80
5651;BME280;40241;52.684;9.758;2022-09-12T15:03:32;101195.59;;;27.13;43.57
5651;BME280;40241;52.684;9.758;2022-09-12T15:05:59;101194.41;;;27.07;43.61
5651;BME280;40241;52.684;9.758;2022-09-12T15:08:27;101190.28;;;26.98;43.98
5651;BME280;40241;52.684;9.758;2022-09-12T15:10:52;101186.41;;;26.94;43.79
5651;BME280;40241;52.684;9.758;2022-09-12T15:13:21;101184.47;;;26.87;44.17
5651;BME280;40241;52.684;9.758;2022-09-12T15:15:49;101176.75;;;26.78;44.09
5651;BME280;40241;52.684;9.758;2022-09-12T15:18:15;101175.41;;;26.69;44.02
5651;BME280;40241;52.684;9.758;2022-09-12T15:20:42;101162.16;;;26.62;44.29
5651;BME280;40241;52.684;9.758;2022-09-12T15:23:28;101170.63;;;26.52;43.50
5651;BME280;40241;52.684;9.758;2022-09-12T15:25:55;101158.56;;;26.42;44.61
5651;BME280;40241;52.684;9.758;2022-09-12T15:28:21;101158.56;;;26.33;44.75